Time;durP1;ratioP1;P1;durP2;ratioP2;P2;SDS_P1;SDS_P2;PMS_P1;PMS_P2;Temp;Humidity;BMP_temperature;BMP_pressure;BME280_temperature;BME280_humidity;BME280_pressure;Samples;Min_cycle;Max_cycle;Signal;HPM_P1;HPM_P2
2022/03/18 00:01:23;;;;;;;113.30;62.30;;;8.80;44.10;;;;;;5005196;28;20507;-62
2022/03/18 00:03:51;;;;;;;108.47;59.43;;;8.70;44.10;;;;;;5005624;28;20472;-60
2022/03/18 00:06:18;;;;;;;108.23;58.93;;;8.70;44.10;;;;;;5005171;28;20467;-59
2022/03/18 00:08:47;;;;;;;114.93;59.33;;;8.70;43.90;;;;;;5003558;28;20622;-59
2022/03/18 00:11:15;;;;;;;106.43;57.13;;;8.70;44.10;;;;;;5002491;28;20491;-59
2022/03/18 00:13:42;;;;;;;111.67;59.70;;;8.80;44.10;;;;;;5004064;28;20471;-59
2022/03/18 00:16:08;;;;;;;107.00;56.93;;;8.80;44.10;;;;;;5005218;28;21136;-59
2022/03/18 00:18:35;;;;;;;106.83;57.53;;;8.70;43.80;;;;;;5005250;28;20480;-60
2022/03/18 00:21:02;;;;;;;112.30;59.93;;;8.70;43.80;;;;;;5001914;28;20455;-59
2022/03/18 00:23:29;;;;;;;118.37;61.67;;;8.70;43.80;;;;;;5005685;28;20538;-58
2022/03/18 00:25:57;;;;;;;113.50;61.70;;;8.70;43.80;;;;;;5009390;28;20810;-60
2022/03/18 00:28:24;;;;;;;116.03;61.27;;;8.70;43.70;;;;;;5000753;28;20995;-60
2022/03/18 00:30:51;;;;;;;111.47;59.10;;;8.70;43.60;;;;;;5007099;28;20468;-59
2022/03/18 00:33:20;;;;;;;110.67;57.70;;;8.70;43.80;;;;;;5008103;28;20491;-60
2022/03/18 00:35:47;;;;;;;115.80;59.40;;;8.70;43.70;;;;;;5005591;28;20467;-59
2022/03/18 00:38:14;;;;;;;110.70;58.80;;;8.70;43.70;;;;;;5005293;28;21080;-62
2022/03/18 00:40:41;;;;;;;112.87;59.47;;;8.70;43.50;;;;;;5009235;28;20460;-60
2022/03/18 00:43:09;;;;;;;115.90;59.97;;;8.70;43.60;;;;;;5007244;28;20463;-61
2022/03/18 00:45:35;;;;;;;116.70;60.57;;;8.60;43.70;;;;;;5009130;28;20460;-60
2022/03/18 00:53:31;;;;;;;114.97;58.83;;;8.60;43.50;;;;;;5006398;28;20515;-60
2022/03/18 00:55:58;;;;;;;111.97;59.07;;;8.60;43.50;;;;;;5008873;28;20467;-60
2022/03/18 00:58:26;;;;;;;109.70;57.83;;;8.60;43.60;;;;;;5005949;28;20490;-59
2022/03/18 01:00:53;;;;;;;111.20;60.20;;;8.60;43.50;;;;;;5008032;28;20468;-59
2022/03/18 01:03:20;;;;;;;108.50;55.97;;;8.60;43.50;;;;;;5008890;28;20462;-60
2022/03/18 01:05:47;;;;;;;115.07;61.77;;;8.60;43.30;;;;;;5007737;28;20467;-59
2022/03/18 01:08:14;;;;;;;110.10;56.63;;;8.60;43.40;;;;;;5007703;28;20510;-59
2022/03/18 01:10:41;;;;;;;112.63;59.50;;;8.60;43.50;;;;;;5008233;28;20487;-59
2022/03/18 01:13:07;;;;;;;111.20;57.33;;;8.60;43.40;;;;;;5007348;28;20606;-60
2022/03/18 01:15:36;;;;;;;107.20;56.20;;;8.60;43.30;;;;;;5008734;28;21085;-60
2022/03/18 01:18:03;;;;;;;112.70;60.00;;;8.60;43.50;;;;;;5008382;28;20963;-58
2022/03/18 01:20:30;;;;;;;100.10;53.07;;;8.60;43.40;;;;;;5005397;28;20493;-60
2022/03/18 01:22:56;;;;;;;110.80;56.20;;;8.60;43.30;;;;;;5004426;28;20468;-59
2022/03/18 01:25:23;;;;;;;106.33;57.80;;;8.60;43.40;;;;;;5001375;28;20470;-60
2022/03/18 01:27:50;;;;;;;107.57;54.97;;;8.60;43.40;;;;;;5007227;28;20508;-59
2022/03/18 01:30:17;;;;;;;106.93;57.07;;;8.60;43.40;;;;;;5006057;28;20475;-60
2022/03/18 01:32:45;;;;;;;109.00;54.27;;;8.50;43.50;;;;;;5007652;28;20479;-59
2022/03/18 01:35:12;;;;;;;108.57;58.40;;;8.50;43.60;;;;;;5006577;28;20476;-60
2022/03/18 01:37:38;;;;;;;108.13;56.57;;;8.50;43.50;;;;;;5007474;28;20486;-60
2022/03/18 01:40:06;;;;;;;112.27;57.63;;;8.50;43.70;;;;;;5007136;28;20464;-60
2022/03/18 01:42:33;;;;;;;112.23;57.20;;;8.50;43.60;;;;;;5006106;28;20850;-60
2022/03/18 01:45:00;;;;;;;106.57;56.40;;;8.50;43.50;;;;;;5006964;28;20522;-59
2022/03/18 01:47:27;;;;;;;104.60;56.30;;;8.50;43.60;;;;;;5002628;28;20484;-59
2022/03/18 01:49:58;;;;;;;107.27;55.37;;;8.50;43.80;;;;;;5005808;28;20470;-59
2022/03/18 01:52:25;;;;;;;105.93;56.57;;;8.50;43.70;;;;;;5005475;28;20977;-59
2022/03/18 01:54:53;;;;;;;101.53;53.40;;;8.50;43.80;;;;;;5005491;28;20459;-60
2022/03/18 01:57:21;;;;;;;99.80;53.80;;;8.50;43.90;;;;;;5001865;28;20479;-62
2022/03/18 01:59:48;;;;;;;103.00;55.77;;;8.50;43.70;;;;;;5005623;28;20471;-60
2022/03/18 02:02:15;;;;;;;104.13;52.80;;;8.50;43.70;;;;;;5005015;28;21015;-59
2022/03/18 02:04:42;;;;;;;109.37;53.57;;;8.50;43.60;;;;;;5007666;28;20460;-59
2022/03/18 02:07:11;;;;;;;105.03;53.87;;;8.40;43.70;;;;;;5005205;28;20487;-59
2022/03/18 02:09:39;;;;;;;102.23;54.67;;;8.40;43.70;;;;;;5003771;28;20467;-60
2022/03/18 02:12:09;;;;;;;101.33;54.30;;;8.50;43.90;;;;;;5006300;28;20480;-59
2022/03/18 02:14:38;;;;;;;105.70;55.57;;;8.50;43.80;;;;;;5006224;28;20833;-60
2022/03/18 02:17:06;;;;;;;108.63;55.30;;;8.50;43.70;;;;;;5006458;28;20474;-60
2022/03/18 02:19:33;;;;;;;106.63;55.30;;;8.40;43.60;;;;;;5004525;28;20667;-59
2022/03/18 02:22:00;;;;;;;101.57;54.50;;;8.40;43.80;;;;;;5006840;28;20460;-59
2022/03/18 02:24:28;;;;;;;102.27;55.00;;;8.40;43.80;;;;;;5005534;28;20906;-61
2022/03/18 02:26:55;;;;;;;105.63;53.70;;;8.40;43.70;;;;;;5007086;28;20476;-59
2022/03/18 02:29:23;;;;;;;99.10;52.57;;;8.40;43.80;;;;;;5006463;28;20464;-60
2022/03/18 02:31:51;;;;;;;104.40;55.13;;;8.40;43.80;;;;;;5005420;28;20479;-59
2022/03/18 02:34:18;;;;;;;114.30;58.20;;;8.40;43.80;;;;;;5007445;28;20474;-61
2022/03/18 02:36:45;;;;;;;109.27;55.90;;;8.40;43.70;;;;;;5004358;28;20988;-60
2022/03/18 02:39:12;;;;;;;102.17;52.13;;;8.40;44.00;;;;;;5006055;28;20463;-60
2022/03/18 02:41:41;;;;;;;105.23;54.70;;;8.40;43.90;;;;;;5004257;28;20483;-60
2022/03/18 02:44:08;;;;;;;107.53;53.77;;;8.40;44.00;;;;;;5009710;28;20969;-59
2022/03/18 02:46:35;;;;;;;99.90;52.10;;;8.40;43.90;;;;;;5009685;28;20465;-60
2022/03/18 02:49:03;;;;;;;102.97;53.37;;;8.40;43.80;;;;;;5009727;28;20541;-58
2022/03/18 02:51:30;;;;;;;97.97;50.10;;;8.40;43.90;;;;;;5007149;28;21004;-61
2022/03/18 02:53:57;;;;;;;99.80;52.00;;;8.40;43.80;;;;;;5009246;28;20492;-60
2022/03/18 02:56:24;;;;;;;104.47;51.90;;;8.40;44.00;;;;;;5009789;28;20464;-60
2022/03/18 02:58:52;;;;;;;98.23;52.53;;;8.40;44.00;;;;;;5009289;28;20837;-60
2022/03/18 03:01:19;;;;;;;98.83;51.10;;;8.40;44.00;;;;;;5009789;28;20498;-60
2022/03/18 03:03:46;;;;;;;102.10;54.97;;;8.40;44.60;;;;;;5008632;28;20456;-60
2022/03/18 03:08:58;;;;;;;100.30;51.50;;;8.30;43.80;;;;;;5009350;28;20462;-59
2022/03/18 03:11:25;;;;;;;102.90;51.97;;;8.30;44.00;;;;;;5008027;28;20467;-60
2022/03/18 03:13:53;;;;;;;100.10;51.33;;;8.30;44.10;;;;;;5009483;28;20480;-60
2022/03/18 03:16:20;;;;;;;104.03;55.27;;;8.30;44.00;;;;;;5005674;28;20460;-59
2022/03/18 03:18:47;;;;;;;103.13;50.90;;;8.30;44.10;;;;;;5010378;28;20533;-60
2022/03/18 03:21:14;;;;;;;100.33;52.33;;;8.30;43.90;;;;;;5010515;28;20836;-60
2022/03/18 03:23:42;;;;;;;98.70;50.53;;;8.20;43.80;;;;;;5007580;28;20463;-61
2022/03/18 03:26:09;;;;;;;102.20;53.17;;;8.20;43.90;;;;;;5007133;28;20478;-60
2022/03/18 03:28:36;;;;;;;101.70;50.80;;;8.20;43.90;;;;;;5006507;28;20501;-60
2022/03/18 03:31:04;;;;;;;96.30;51.47;;;8.20;43.90;;;;;;5008545;28;21023;-60
2022/03/18 03:33:32;;;;;;;95.70;48.47;;;8.20;43.80;;;;;;5005507;28;20479;-60
2022/03/18 03:35:59;;;;;;;99.03;49.77;;;8.20;44.00;;;;;;5002749;28;20922;-60
2022/03/18 03:38:26;;;;;;;98.73;50.47;;;8.20;44.00;;;;;;5003170;28;20895;-60
2022/03/18 03:40:53;;;;;;;99.27;52.10;;;8.20;44.00;;;;;;5010380;28;20464;-60
2022/03/18 03:43:20;;;;;;;104.90;50.97;;;8.20;44.00;;;;;;5006064;28;20961;-59
2022/03/18 03:45:47;;;;;;;98.20;50.17;;;8.20;44.00;;;;;;5008202;28;21024;-60
2022/03/18 03:48:15;;;;;;;94.13;48.27;;;8.20;44.20;;;;;;5006009;28;20482;-60
2022/03/18 03:50:42;;;;;;;99.43;49.47;;;8.10;44.00;;;;;;5010623;28;20452;-60
2022/03/18 03:53:10;;;;;;;99.63;52.67;;;8.10;44.00;;;;;;5001973;28;20963;-59
2022/03/18 03:55:39;;;;;;;94.73;47.67;;;8.10;43.90;;;;;;5008194;28;20494;-60
2022/03/18 03:58:07;;;;;;;99.77;50.33;;;8.10;43.90;;;;;;5009491;28;20484;-60
2022/03/18 04:00:34;;;;;;;95.87;50.00;;;8.10;43.90;;;;;;5008278;28;20526;-61
2022/03/18 04:03:00;;;;;;;97.90;50.40;;;8.10;44.00;;;;;;5007391;28;20463;-60
2022/03/18 04:05:30;;;;;;;100.60;51.57;;;8.10;44.00;;;;;;5003616;28;20471;-59
2022/03/18 04:07:57;;;;;;;102.47;52.93;;;8.10;43.90;;;;;;5008470;28;20480;-60
2022/03/18 04:10:23;;;;;;;102.20;51.57;;;8.10;43.80;;;;;;5006865;28;20475;-59
2022/03/18 04:12:50;;;;;;;102.07;50.00;;;8.10;43.80;;;;;;5007366;28;20480;-60
2022/03/18 04:15:17;;;;;;;103.17;50.33;;;8.00;43.70;;;;;;5008621;28;20467;-60
2022/03/18 04:17:46;;;;;;;95.57;49.20;;;8.00;43.60;;;;;;5005647;28;20488;-60
2022/03/18 04:20:14;;;;;;;96.67;48.67;;;8.00;43.50;;;;;;5006539;28;20464;-61
2022/03/18 04:22:43;;;;;;;104.13;51.80;;;8.00;43.50;;;;;;5008595;28;20456;-61
2022/03/18 04:25:10;;;;;;;103.37;52.30;;;8.00;43.70;;;;;;5009057;28;20505;-60
2022/03/18 04:27:38;;;;;;;101.00;51.30;;;7.90;43.80;;;;;;5009827;28;20488;-61
2022/03/18 04:30:05;;;;;;;110.17;51.47;;;7.90;43.80;;;;;;5005649;28;20461;-60
2022/03/18 04:32:32;;;;;;;100.67;51.00;;;8.00;43.80;;;;;;4998611;28;20484;-60
2022/03/18 04:34:59;;;;;;;115.33;52.10;;;7.90;44.10;;;;;;5003934;28;20456;-60
2022/03/18 04:37:26;;;;;;;96.90;49.27;;;7.90;43.90;;;;;;5007797;28;20480;-60
2022/03/18 04:39:54;;;;;;;100.63;51.27;;;7.90;43.80;;;;;;5007785;28;20496;-59
2022/03/18 04:42:21;;;;;;;98.53;52.07;;;7.90;43.70;;;;;;4997161;28;20464;-60
2022/03/18 04:44:48;;;;;;;102.80;51.87;;;7.90;43.80;;;;;;5006344;28;20474;-60
2022/03/18 04:47:15;;;;;;;98.47;49.60;;;7.90;43.80;;;;;;5009595;28;20483;-60
2022/03/18 04:49:41;;;;;;;104.20;51.30;;;7.90;43.70;;;;;;5006658;28;20460;-60
2022/03/18 04:52:08;;;;;;;99.90;50.30;;;7.90;43.80;;;;;;4999716;28;20460;-60
2022/03/18 04:54:35;;;;;;;104.87;51.90;;;7.90;43.80;;;;;;5006365;28;21244;-60
2022/03/18 04:57:16;;;;;;;101.30;49.10;;;7.90;43.90;;;;;;5008167;28;21190;-60
2022/03/18 04:59:43;;;;;;;101.40;49.90;;;7.90;44.10;;;;;;5008376;28;20460;-57
2022/03/18 05:02:10;;;;;;;105.20;54.13;;;7.90;43.80;;;;;;5001382;28;20889;-59
2022/03/18 05:04:37;;;;;;;98.30;50.73;;;7.90;43.80;;;;;;5003693;28;20530;-60
2022/03/18 05:07:05;;;;;;;108.83;54.50;;;7.90;43.90;;;;;;5001816;28;20996;-61
2022/03/18 05:09:32;;;;;;;107.40;51.50;;;7.90;43.80;;;;;;5008853;28;20460;-60
2022/03/18 05:11:59;;;;;;;99.77;50.57;;;7.90;43.80;;;;;;5006995;28;20514;-61
2022/03/18 05:14:27;;;;;;;101.47;52.47;;;7.90;43.80;;;;;;5004109;28;20514;-58
2022/03/18 05:16:53;;;;;;;100.43;50.50;;;7.90;43.80;;;;;;5000010;28;20479;-57
2022/03/18 05:19:20;;;;;;;107.33;54.53;;;7.90;43.70;;;;;;5002410;28;21250;-58
2022/03/18 05:21:47;;;;;;;104.50;54.60;;;7.90;43.70;;;;;;5003112;28;20468;-57
2022/03/18 05:24:14;;;;;;;101.63;51.53;;;7.90;43.70;;;;;;5002440;28;20452;-58
2022/03/18 05:26:41;;;;;;;105.20;51.83;;;7.90;43.70;;;;;;5003224;28;20495;-57
2022/03/18 05:29:08;;;;;;;105.47;52.97;;;7.90;43.80;;;;;;5003987;28;20488;-58
2022/03/18 05:31:36;;;;;;;105.77;51.60;;;7.90;43.90;;;;;;4998761;28;21166;-55
2022/03/18 05:34:03;;;;;;;109.50;54.63;;;7.90;44.00;;;;;;5004686;28;20495;-57
2022/03/18 05:36:30;;;;;;;107.77;53.23;;;7.90;43.80;;;;;;5005249;28;20959;-56
2022/03/18 05:38:57;;;;;;;111.90;54.97;;;7.90;43.90;;;;;;5007597;28;20491;-59
2022/03/18 05:41:24;;;;;;;110.87;55.40;;;7.90;44.50;;;;;;5007454;28;20483;-59
2022/03/18 05:43:51;;;;;;;103.63;52.37;;;7.90;44.30;;;;;;5008028;28;20456;-59
2022/03/18 05:46:17;;;;;;;108.13;52.47;;;7.90;44.30;;;;;;5006392;28;20470;-60
2022/03/18 05:48:45;;;;;;;101.07;53.17;;;7.90;44.40;;;;;;5003489;28;20483;-59
2022/03/18 05:51:12;;;;;;;116.13;54.27;;;7.90;44.20;;;;;;5002127;28;20500;-59
2022/03/18 05:53:39;;;;;;;112.20;54.20;;;7.90;44.50;;;;;;5003660;28;20554;-59
2022/03/18 05:58:51;;;;;;;108.23;50.90;;;8.00;44.40;;;;;;4994264;28;20479;-59
2022/03/18 06:01:17;;;;;;;110.53;53.03;;;8.00;44.60;;;;;;5005889;28;20497;-59
2022/03/18 06:03:46;;;;;;;105.80;50.73;;;8.00;44.60;;;;;;4998701;28;21213;-58
2022/03/18 06:06:13;;;;;;;105.53;51.23;;;8.00;44.70;;;;;;4999762;28;20491;-59
2022/03/18 06:14:08;;;;;;;105.37;48.77;;;8.10;44.70;;;;;;5004098;28;20979;-59
2022/03/18 06:16:36;;;;;;;110.30;50.10;;;8.10;45.50;;;;;;5001719;28;20475;-58
2022/03/18 06:19:04;;;;;;;104.23;50.57;;;8.10;44.80;;;;;;5000518;28;20506;-59
2022/03/18 06:21:31;;;;;;;108.23;51.00;;;8.10;44.70;;;;;;5000555;28;20973;-58
2022/03/18 06:23:57;;;;;;;105.07;48.07;;;8.10;44.90;;;;;;5003193;28;20464;-57
2022/03/18 06:26:24;;;;;;;104.77;49.60;;;8.10;44.90;;;;;;5002814;28;20472;-58
2022/03/18 06:28:51;;;;;;;103.27;48.10;;;8.10;44.70;;;;;;5002206;28;20572;-60
2022/03/18 06:31:18;;;;;;;103.80;48.57;;;8.20;44.50;;;;;;5003467;28;20475;-58
2022/03/18 06:33:44;;;;;;;103.30;48.70;;;8.20;44.20;;;;;;5004555;28;20487;-59
2022/03/18 06:36:12;;;;;;;105.30;49.43;;;8.20;44.20;;;;;;5005157;28;20471;-58
2022/03/18 06:38:40;;;;;;;106.53;49.20;;;8.30;44.20;;;;;;5003623;28;20495;-57
2022/03/18 06:41:06;;;;;;;109.57;51.27;;;8.30;44.20;;;;;;5004743;28;20468;-57
2022/03/18 06:43:33;;;;;;;103.47;47.57;;;8.30;44.00;;;;;;5002676;28;20478;-56
2022/03/18 06:46:02;;;;;;;104.43;47.13;;;8.30;43.90;;;;;;5003908;28;20494;-57
2022/03/18 06:48:29;;;;;;;106.47;45.83;;;8.40;43.90;;;;;;5004450;28;21084;-57
2022/03/18 06:50:55;;;;;;;101.20;47.10;;;8.40;43.60;;;;;;5001471;28;20471;-58
2022/03/18 06:53:23;;;;;;;99.20;45.73;;;8.50;43.50;;;;;;5000461;28;20483;-59
2022/03/18 06:55:50;;;;;;;96.10;46.17;;;8.50;43.30;;;;;;5003472;28;20505;-58
2022/03/18 06:58:17;;;;;;;93.57;43.90;;;8.60;43.30;;;;;;5001733;28;20484;-57
2022/03/18 07:00:44;;;;;;;100.50;45.00;;;8.70;42.90;;;;;;5001445;28;20478;-58
2022/03/18 07:03:10;;;;;;;94.90;44.60;;;8.70;42.60;;;;;;5004071;28;20875;-58
2022/03/18 07:05:37;;;;;;;100.93;46.20;;;8.80;42.30;;;;;;5002941;28;20474;-57
2022/03/18 07:08:04;;;;;;;93.30;44.20;;;8.90;42.10;;;;;;5002966;28;20496;-59
2022/03/18 07:10:33;;;;;;;94.40;45.10;;;9.00;41.90;;;;;;5002556;28;20544;-59
2022/03/18 07:12:59;;;;;;;95.87;43.80;;;9.00;41.60;;;;;;5001021;28;20530;-59
2022/03/18 07:15:26;;;;;;;92.53;42.77;;;9.10;41.10;;;;;;5003398;28;20534;-58
2022/03/18 07:17:55;;;;;;;94.47;46.17;;;9.20;40.60;;;;;;5003002;28;20476;-59
2022/03/18 07:20:23;;;;;;;98.10;47.10;;;9.30;40.60;;;;;;5004290;28;20510;-59
2022/03/18 07:23:00;;;;;;;89.47;43.20;;;9.40;40.60;;;;;;5005525;28;20460;-60
2022/03/18 07:25:28;;;;;;;94.00;46.00;;;9.50;39.80;;;;;;5006825;28;20515;-58
2022/03/18 07:27:56;;;;;;;90.40;42.90;;;9.60;39.50;;;;;;5006160;28;20492;-58
2022/03/18 07:30:23;;;;;;;86.00;41.73;;;9.70;39.40;;;;;;5005768;28;20473;-60
2022/03/18 07:32:50;;;;;;;86.57;41.40;;;10.00;38.60;;;;;;5008863;28;20464;-60
2022/03/18 07:35:18;;;;;;;85.07;40.67;;;10.10;38.20;;;;;;5007379;28;20991;-61
2022/03/18 07:37:45;;;;;;;88.13;41.53;;;10.20;37.10;;;;;;4997720;28;20483;-58
2022/03/18 07:40:12;;;;;;;85.23;42.67;;;10.20;36.50;;;;;;5007496;28;20463;-57
2022/03/18 07:42:43;;;;;;;91.57;43.93;;;10.30;36.30;;;;;;5005923;28;20543;-59
2022/03/18 07:45:12;;;;;;;84.63;39.80;;;10.30;36.40;;;;;;5007191;28;20456;-56
2022/03/18 07:47:39;;;;;;;85.07;41.07;;;10.40;36.10;;;;;;5006988;28;20715;-56
2022/03/18 07:50:07;;;;;;;82.87;39.20;;;10.50;35.50;;;;;;5007255;28;20471;-55
2022/03/18 07:52:34;;;;;;;84.33;41.53;;;10.70;34.80;;;;;;5007005;28;20467;-57
2022/03/18 07:55:01;;;;;;;83.47;40.03;;;10.80;34.30;;;;;;5004478;28;20494;-57
2022/03/18 07:57:28;;;;;;;80.23;40.23;;;10.90;34.20;;;;;;5006031;28;20483;-57
2022/03/18 07:59:55;;;;;;;81.77;39.40;;;10.80;33.70;;;;;;5000888;28;20471;-56
2022/03/18 08:02:23;;;;;;;82.47;40.90;;;10.70;33.70;;;;;;4995520;28;20480;-57
2022/03/18 08:04:52;;;;;;;82.03;37.73;;;10.60;34.10;;;;;;4998289;28;20484;-57
2022/03/18 08:07:19;;;;;;;79.53;37.90;;;10.60;33.90;;;;;;5005146;28;20538;-57
2022/03/18 08:09:46;;;;;;;83.50;38.03;;;10.60;33.80;;;;;;5005128;28;20975;-61
2022/03/18 08:12:13;;;;;;;83.67;38.13;;;10.70;33.90;;;;;;5005487;28;20463;-58
2022/03/18 08:14:40;;;;;;;79.87;39.90;;;10.70;33.70;;;;;;5004764;28;20484;-57
2022/03/18 08:17:07;;;;;;;81.47;40.47;;;10.70;33.70;;;;;;5003802;28;20468;-60
2022/03/18 08:19:35;;;;;;;80.40;37.00;;;10.80;33.60;;;;;;5001140;28;20495;-63
2022/03/18 08:22:04;;;;;;;77.60;36.30;;;10.90;32.90;;;;;;5004731;28;20503;-59
2022/03/18 08:24:31;;;;;;;74.70;35.40;;;11.00;32.10;;;;;;5004999;28;20464;-59
2022/03/18 08:26:58;;;;;;;75.63;36.80;;;10.90;32.00;;;;;;5001759;28;20453;-58
2022/03/18 08:29:25;;;;;;;79.63;38.80;;;10.90;31.90;;;;;;5005492;28;20460;-59
2022/03/18 08:31:52;;;;;;;72.90;36.60;;;10.90;31.80;;;;;;5005125;28;20480;-59
2022/03/18 08:34:20;;;;;;;81.00;38.40;;;10.90;31.90;;;;;;5004881;28;21000;-59
2022/03/18 08:36:48;;;;;;;76.50;37.90;;;10.90;32.00;;;;;;5002905;28;21024;-58
2022/03/18 08:39:15;;;;;;;71.77;35.37;;;10.90;31.80;;;;;;5003534;28;20467;-58
2022/03/18 08:41:42;;;;;;;76.33;36.57;;;11.10;31.30;;;;;;5001314;28;20490;-58
2022/03/18 08:44:09;;;;;;;81.30;41.00;;;11.20;30.90;;;;;;5005980;28;20988;-59
2022/03/18 08:46:36;;;;;;;77.07;37.97;;;11.40;30.40;;;;;;5007541;28;20465;-59
2022/03/18 08:49:02;;;;;;;75.70;36.10;;;11.70;30.20;;;;;;5004748;28;20487;-60
2022/03/18 08:51:29;;;;;;;70.73;35.73;;;12.00;27.60;;;;;;5004110;28;20460;-58
2022/03/18 08:53:57;;;;;;;69.53;35.70;;;12.00;26.50;;;;;;5006135;28;20850;-58
2022/03/18 08:56:24;;;;;;;73.20;37.00;;;12.00;26.20;;;;;;5007993;28;20536;-58
2022/03/18 08:58:51;;;;;;;71.83;35.77;;;11.90;26.70;;;;;;5003062;28;20499;-59
2022/03/18 09:01:17;;;;;;;76.30;34.87;;;11.90;26.90;;;;;;5004233;28;20495;-59
2022/03/18 09:03:44;;;;;;;74.20;36.97;;;11.90;27.10;;;;;;5002352;28;20559;-59
2022/03/18 09:06:12;;;;;;;70.53;35.90;;;11.90;27.30;;;;;;5002459;28;20468;-58
2022/03/18 09:08:39;;;;;;;68.57;34.67;;;11.90;26.30;;;;;;5008426;28;20507;-58
2022/03/18 09:11:08;;;;;;;71.80;35.70;;;12.00;26.50;;;;;;4999392;28;20526;-58
2022/03/18 09:13:35;;;;;;;68.67;33.87;;;11.80;26.20;;;;;;5002412;28;21254;-59
2022/03/18 09:16:02;;;;;;;69.70;33.97;;;11.60;26.00;;;;;;5001959;28;20523;-59
2022/03/18 09:18:29;;;;;;;68.40;34.10;;;11.60;26.10;;;;;;4999330;28;20510;-57
2022/03/18 09:20:56;;;;;;;69.17;33.40;;;11.60;25.70;;;;;;5002857;28;20463;-59
2022/03/18 09:23:22;;;;;;;102.10;41.20;;;11.60;26.60;;;;;;5005651;28;20505;-59
2022/03/18 09:25:49;;;;;;;73.77;35.50;;;11.70;26.70;;;;;;5003381;28;20529;-58
2022/03/18 09:28:17;;;;;;;66.43;33.80;;;11.60;27.40;;;;;;5003831;28;21001;-60
2022/03/18 09:30:44;;;;;;;75.10;36.00;;;11.60;27.30;;;;;;5002343;28;21008;-59
2022/03/18 09:33:11;;;;;;;74.80;35.73;;;11.60;27.10;;;;;;5002196;28;21100;-60
2022/03/18 09:35:39;;;;;;;70.73;34.50;;;11.60;26.70;;;;;;5005374;28;20577;-60
2022/03/18 09:38:06;;;;;;;67.73;35.03;;;11.50;26.80;;;;;;5005626;28;20480;-61
2022/03/18 09:40:33;;;;;;;66.37;33.93;;;11.80;26.00;;;;;;5004971;28;20471;-61
2022/03/18 09:43:02;;;;;;;72.20;34.13;;;11.90;24.70;;;;;;5001210;28;20468;-62
2022/03/18 09:45:32;;;;;;;66.43;33.50;;;12.10;25.30;;;;;;5004633;28;20468;-61
2022/03/18 09:48:00;;;;;;;68.03;32.97;;;12.30;23.70;;;;;;5004509;28;20487;-60
2022/03/18 09:50:28;;;;;;;69.00;33.33;;;12.20;23.10;;;;;;5001409;28;20467;-60
2022/03/18 09:52:54;;;;;;;67.20;33.73;;;12.30;24.30;;;;;;5002265;28;20472;-60
2022/03/18 09:55:22;;;;;;;64.03;32.63;;;12.50;23.60;;;;;;5003838;28;20772;-60
2022/03/18 09:57:48;;;;;;;66.80;32.47;;;12.70;23.90;;;;;;5007209;28;20495;-61
2022/03/18 10:00:16;;;;;;;65.40;31.90;;;13.00;22.20;;;;;;5007526;28;20474;-61
2022/03/18 10:02:44;;;;;;;68.30;32.97;;;12.90;21.50;;;;;;5006736;28;20553;-60
2022/03/18 10:05:13;;;;;;;61.60;30.90;;;12.90;21.90;;;;;;5006795;28;20456;-61
2022/03/18 10:07:40;;;;;;;68.10;32.83;;;13.10;22.20;;;;;;5002991;28;20486;-61
2022/03/18 10:10:14;;;;;;;63.13;32.77;;;13.30;20.80;;;;;;5003765;28;20471;-61
2022/03/18 10:12:44;;;;;;;64.33;30.50;;;13.70;21.10;;;;;;5001960;28;21043;-61
2022/03/18 10:15:14;;;;;;;67.37;32.63;;;14.10;19.80;;;;;;5003028;28;20512;-61
2022/03/18 10:17:45;;;;;;;66.03;34.40;;;14.30;19.80;;;;;;5007580;28;20484;-61
2022/03/18 10:20:24;;;;;;;62.53;32.60;;;14.30;19.30;;;;;;5005323;28;20468;-61
2022/03/18 10:22:51;;;;;;;65.17;31.77;;;14.20;19.10;;;;;;4996455;28;20499;-59
2022/03/18 10:25:36;;;;;;;67.17;31.47;;;14.10;19.70;;;;;;5000143;28;20471;-60
2022/03/18 10:28:04;;;;;;;65.70;32.73;;;14.50;19.50;;;;;;4999415;28;20511;-60
2022/03/18 10:30:31;;;;;;;59.97;29.80;;;14.70;18.60;;;;;;4998490;28;20457;-59
2022/03/18 10:32:59;;;;;;;63.13;33.33;;;14.70;17.70;;;;;;4998082;28;20857;-60
2022/03/18 10:38:30;;;;;;;68.07;33.87;;;14.50;17.90;;;;;;4996104;28;20478;-60
2022/03/18 10:40:59;;;;;;;61.90;31.13;;;14.60;17.50;;;;;;4999674;28;20472;-59
2022/03/18 10:43:26;;;;;;;63.23;32.30;;;14.80;17.80;;;;;;5003832;28;21198;-60
2022/03/18 10:46:03;;;;;;;64.03;33.00;;;15.20;17.00;;;;;;5001818;28;20467;-59
2022/03/18 10:48:32;;;;;;;62.43;32.50;;;16.10;16.40;;;;;;4995436;28;20488;-59
2022/03/18 10:51:04;;;;;;;59.30;30.07;;;16.50;16.20;;;;;;5001475;28;20464;-60
2022/03/18 10:53:32;;;;;;;62.33;32.53;;;17.00;14.00;;;;;;5001630;28;20463;-62
2022/03/18 10:56:01;;;;;;;61.40;32.33;;;17.10;13.00;;;;;;4999871;28;20483;-61
2022/03/18 10:58:31;;;;;;;62.80;31.77;;;17.00;13.20;;;;;;4996636;28;20860;-61
2022/03/18 11:00:59;;;;;;;61.70;32.10;;;17.10;13.90;;;;;;5001429;28;20988;-61
2022/03/18 11:03:26;;;;;;;61.43;31.90;;;17.20;13.70;;;;;;4997653;28;20518;-60
2022/03/18 11:05:55;;;;;;;62.10;32.50;;;17.00;13.40;;;;;;5009119;28;20455;-59
2022/03/18 11:08:23;;;;;;;63.30;32.50;;;16.80;13.60;;;;;;5008243;28;20484;-60
2022/03/18 11:13:46;;;;;;;62.93;32.50;;;17.00;13.80;;;;;;5004666;28;20595;-61
2022/03/18 11:16:14;;;;;;;62.00;34.60;;;17.50;13.40;;;;;;5003196;28;20598;-61
2022/03/18 11:18:43;;;;;;;62.90;31.47;;;18.10;12.30;;;;;;5008819;28;20484;-59
2022/03/18 11:21:11;;;;;;;65.60;33.93;;;18.50;11.50;;;;;;5000172;28;20517;-60
2022/03/18 11:23:40;;;;;;;59.87;31.87;;;18.70;11.20;;;;;;5001725;28;20452;-60
2022/03/18 11:26:08;;;;;;;60.80;32.50;;;19.00;9.70;;;;;;5007921;28;20526;-60
2022/03/18 11:28:35;;;;;;;61.70;31.67;;;18.80;10.20;;;;;;5003463;28;21011;-59
2022/03/18 11:31:04;;;;;;;61.03;32.47;;;19.00;9.50;;;;;;5003430;28;20476;-60
2022/03/18 11:33:31;;;;;;;57.93;31.63;;;19.30;10.00;;;;;;4997514;28;20476;-59
2022/03/18 11:36:14;;;;;;;60.90;33.30;;;20.10;9.10;;;;;;5001787;28;20491;-60
2022/03/18 11:38:57;;;;;;;63.10;31.23;;;20.30;8.00;;;;;;5006301;28;20483;-63
2022/03/18 11:41:44;;;;;;;60.97;31.73;;;20.20;7.30;;;;;;5008184;28;20471;-63
2022/03/18 11:44:11;;;;;;;60.17;33.17;;;19.90;8.60;;;;;;5002254;28;20795;-63
2022/03/18 11:46:40;;;;;;;62.20;33.13;;;19.70;8.20;;;;;;5004347;28;20475;-64
2022/03/18 11:49:08;;;;;;;61.60;31.07;;;19.40;8.60;;;;;;5003693;28;20476;-64
2022/03/18 11:51:40;;;;;;;59.37;32.40;;;19.10;8.70;;;;;;5007460;28;20467;-63
2022/03/18 11:54:10;;;;;;;73.47;34.13;;;18.90;9.00;;;;;;5003144;28;20508;-63
2022/03/18 11:56:45;;;;;;;106.70;38.70;;;18.60;9.10;;;;;;5002724;28;20543;-62
2022/03/18 11:59:46;;;;;;;60.20;32.13;;;18.20;9.50;;;;;;5007168;28;20490;-63
2022/03/18 12:02:14;;;;;;;83.20;35.60;;;17.80;9.90;;;;;;5007155;28;20483;-63
2022/03/18 12:04:44;;;;;;;62.17;33.20;;;17.30;9.90;;;;;;5003348;28;20475;-62
2022/03/18 12:07:18;;;;;;;61.97;32.40;;;16.90;11.10;;;;;;4998553;28;20573;-62
2022/03/18 12:09:49;;;;;;;61.43;32.33;;;16.60;11.80;;;;;;5004632;28;20463;-62
2022/03/18 12:12:17;;;;;;;61.87;33.50;;;16.50;12.70;;;;;;5008585;28;20467;-60
2022/03/18 12:14:43;;;;;;;65.50;33.53;;;16.50;13.00;;;;;;5002825;28;20480;-59
2022/03/18 12:17:10;;;;;;;63.27;34.07;;;16.50;12.80;;;;;;5008291;28;20487;-60
2022/03/18 12:19:37;;;;;;;62.50;32.13;;;16.40;12.80;;;;;;5009044;28;20475;-60
2022/03/18 12:22:06;;;;;;;66.90;31.53;;;16.30;13.20;;;;;;5005055;28;21745;-60
2022/03/18 12:24:34;;;;;;;59.63;31.73;;;16.20;12.60;;;;;;5004341;28;20478;-60
2022/03/18 12:27:01;;;;;;;63.57;31.17;;;16.10;11.30;;;;;;5007433;28;20474;-60
2022/03/18 12:29:29;;;;;;;62.23;31.37;;;15.80;10.90;;;;;;5004292;28;20466;-61
2022/03/18 12:32:03;;;;;;;63.13;32.83;;;15.60;11.70;;;;;;5003389;28;20482;-60
2022/03/18 12:34:30;;;;;;;65.50;32.87;;;15.50;12.30;;;;;;5002572;28;20471;-60
2022/03/18 12:36:57;;;;;;;62.17;31.40;;;15.40;11.20;;;;;;5005310;28;20863;-60
2022/03/18 12:39:27;;;;;;;61.87;32.87;;;15.30;12.40;;;;;;5002956;28;20490;-60
2022/03/18 12:42:09;;;;;;;61.40;29.67;;;15.30;12.60;;;;;;5007633;28;20526;-59
2022/03/18 12:44:35;;;;;;;61.33;28.30;;;15.20;11.90;;;;;;5004343;28;20459;-60
2022/03/18 12:47:05;;;;;;;65.30;30.77;;;15.00;10.80;;;;;;5000961;28;20822;-61
2022/03/18 12:49:32;;;;;;;64.03;29.50;;;14.80;10.50;;;;;;5003144;28;20914;-61
2022/03/18 12:52:01;;;;;;;60.50;30.10;;;14.70;10.90;;;;;;5002152;28;20468;-60
2022/03/18 12:54:28;;;;;;;62.53;31.87;;;14.60;12.00;;;;;;5002696;28;20554;-60